sensor_id;sensor_type;location;lat;lon;timestamp;temperature;humidity
65421;DHT22;52028;50.658;14.004;2022-12-10T00:01:17;3.79;76.08
65421;DHT22;52028;50.658;14.004;2022-12-10T00:03:44;3.69;76.23
65421;DHT22;52028;50.658;14.004;2022-12-10T00:06:12;3.68;76.47
65421;DHT22;52028;50.658;14.004;2022-12-10T00:08:38;3.81;76.19
65421;DHT22;52028;50.658;14.004;2022-12-10T00:11:05;3.93;76.30
65421;DHT22;52028;50.658;14.004;2022-12-10T00:13:32;3.85;76.11
65421;DHT22;52028;50.658;14.004;2022-12-10T00:16:02;3.83;76.02
65421;DHT22;52028;50.658;14.004;2022-12-10T00:18:28;3.85;76.23
65421;DHT22;52028;50.658;14.004;2022-12-10T00:20:54;3.83;76.30
65421;DHT22;52028;50.658;14.004;2022-12-10T00:23:19;3.69;76.89
65421;DHT22;52028;50.658;14.004;2022-12-10T00:25:44;3.59;77.16
65421;DHT22;52028;50.658;14.004;2022-12-10T00:28:10;3.55;77.09
65421;DHT22;52028;50.658;14.004;2022-12-10T00:30:36;3.48;77.25
65421;DHT22;52028;50.658;14.004;2022-12-10T00:33:01;3.48;77.58
65421;DHT22;52028;50.658;14.004;2022-12-10T00:35:26;3.47;77.32
65421;DHT22;52028;50.658;14.004;2022-12-10T00:37:52;3.52;77.29
65421;DHT22;52028;50.658;14.004;2022-12-10T00:40:17;3.57;77.49
65421;DHT22;52028;50.658;14.004;2022-12-10T00:42:42;3.52;77.14
65421;DHT22;52028;50.658;14.004;2022-12-10T00:45:08;3.61;77.05
65421;DHT22;52028;50.658;14.004;2022-12-10T00:47:33;3.57;76.86
65421;DHT22;52028;50.658;14.004;2022-12-10T00:49:59;3.50;76.64
65421;DHT22;52028;50.658;14.004;2022-12-10T00:52:24;3.47;76.93
65421;DHT22;52028;50.658;14.004;2022-12-10T00:54:49;3.45;76.97
65421;DHT22;52028;50.658;14.004;2022-12-10T00:57:15;3.45;77.23
65421;DHT22;52028;50.658;14.004;2022-12-10T00:59:41;3.50;77.35
65421;DHT22;52028;50.658;14.004;2022-12-10T01:02:06;3.54;77.19
65421;DHT22;52028;50.658;14.004;2022-12-10T01:04:31;3.45;77.28
65421;DHT22;52028;50.658;14.004;2022-12-10T01:06:57;3.50;77.50
65421;DHT22;52028;50.658;14.004;2022-12-10T01:09:27;3.57;77.30
65421;DHT22;52028;50.658;14.004;2022-12-10T01:11:54;3.64;77.13
65421;DHT22;52028;50.658;14.004;2022-12-10T01:14:23;3.65;77.06
65421;DHT22;52028;50.658;14.004;2022-12-10T01:16:49;3.65;77.42
65421;DHT22;52028;50.658;14.004;2022-12-10T01:19:18;3.65;76.94
65421;DHT22;52028;50.658;14.004;2022-12-10T01:21:43;3.65;77.57
65421;DHT22;52028;50.658;14.004;2022-12-10T01:24:08;3.61;77.47
65421;DHT22;52028;50.658;14.004;2022-12-10T01:26:34;3.71;77.43
65421;DHT22;52028;50.658;14.004;2022-12-10T01:29:00;3.66;77.17
65421;DHT22;52028;50.658;14.004;2022-12-10T01:31:33;3.75;76.80
65421;DHT22;52028;50.658;14.004;2022-12-10T01:33:59;3.69;76.72
65421;DHT22;52028;50.658;14.004;2022-12-10T01:36:31;3.64;76.59
65421;DHT22;52028;50.658;14.004;2022-12-10T01:38:57;3.66;76.59
65421;DHT22;52028;50.658;14.004;2022-12-10T01:41:55;3.75;76.54
65421;DHT22;52028;50.658;14.004;2022-12-10T01:46:48;3.83;76.34
65421;DHT22;52028;50.658;14.004;2022-12-10T01:49:16;3.54;76.53
65421;DHT22;52028;50.658;14.004;2022-12-10T01:51:43;3.54;76.76
65421;DHT22;52028;50.658;14.004;2022-12-10T01:54:16;3.66;76.49
65421;DHT22;52028;50.658;14.004;2022-12-10T01:56:45;3.74;76.03
65421;DHT22;52028;50.658;14.004;2022-12-10T01:59:12;3.75;76.09
65421;DHT22;52028;50.658;14.004;2022-12-10T02:04:45;3.78;76.18
65421;DHT22;52028;50.658;14.004;2022-12-10T02:10:35;3.75;76.24
65421;DHT22;52028;50.658;14.004;2022-12-10T02:13:17;3.83;75.89
65421;DHT22;52028;50.658;14.004;2022-12-10T02:15:48;3.82;75.92
65421;DHT22;52028;50.658;14.004;2022-12-10T02:18:29;3.82;75.89
65421;DHT22;52028;50.658;14.004;2022-12-10T02:20:59;3.82;75.99
65421;DHT22;52028;50.658;14.004;2022-12-10T02:23:35;3.82;76.13
65421;DHT22;52028;50.658;14.004;2022-12-10T02:31:25;3.66;76.64
65421;DHT22;52028;50.658;14.004;2022-12-10T02:33:55;3.48;77.19
65421;DHT22;52028;50.658;14.004;2022-12-10T02:36:23;3.35;77.53
65421;DHT22;52028;50.658;14.004;2022-12-10T02:38:51;3.37;77.63
65421;DHT22;52028;50.658;14.004;2022-12-10T02:41:20;3.24;77.74
65421;DHT22;52028;50.658;14.004;2022-12-10T02:43:50;3.42;77.72
65421;DHT22;52028;50.658;14.004;2022-12-10T02:46:17;3.42;77.35
65421;DHT22;52028;50.658;14.004;2022-12-10T02:48:42;3.48;77.42
65421;DHT22;52028;50.658;14.004;2022-12-10T02:51:09;3.42;77.04
65421;DHT22;52028;50.658;14.004;2022-12-10T02:53:41;3.28;77.28
65421;DHT22;52028;50.658;14.004;2022-12-10T02:56:20;2.97;77.90
65421;DHT22;52028;50.658;14.004;2022-12-10T03:04:01;3.10;78.22
65421;DHT22;52028;50.658;14.004;2022-12-10T03:06:44;3.24;77.76
65421;DHT22;52028;50.658;14.004;2022-12-10T03:09:23;3.28;77.64
65421;DHT22;52028;50.658;14.004;2022-12-10T03:11:56;3.38;77.60
65421;DHT22;52028;50.658;14.004;2022-12-10T03:14:27;3.47;77.00
65421;DHT22;52028;50.658;14.004;2022-12-10T03:16:56;3.52;76.83
65421;DHT22;52028;50.658;14.004;2022-12-10T03:19:26;3.57;76.70
65421;DHT22;52028;50.658;14.004;2022-12-10T03:21:54;3.62;76.59
65421;DHT22;52028;50.658;14.004;2022-12-10T03:24:22;3.68;76.43
65421;DHT22;52028;50.658;14.004;2022-12-10T03:26:48;3.78;76.19
65421;DHT22;52028;50.658;14.004;2022-12-10T03:29:18;3.75;76.16
65421;DHT22;52028;50.658;14.004;2022-12-10T03:31:45;3.75;76.22
65421;DHT22;52028;50.658;14.004;2022-12-10T03:34:11;3.64;76.30
65421;DHT22;52028;50.658;14.004;2022-12-10T03:36:38;3.74;76.08
65421;DHT22;52028;50.658;14.004;2022-12-10T03:39:04;3.69;76.18
65421;DHT22;52028;50.658;14.004;2022-12-10T03:41:30;3.72;76.43
65421;DHT22;52028;50.658;14.004;2022-12-10T03:43:57;3.76;76.33
65421;DHT22;52028;50.658;14.004;2022-12-10T03:46:25;3.75;76.79
65421;DHT22;52028;50.658;14.004;2022-12-10T03:48:51;3.66;76.65
65421;DHT22;52028;50.658;14.004;2022-12-10T03:51:17;3.57;76.82
65421;DHT22;52028;50.658;14.004;2022-12-10T03:53:42;3.55;76.61
65421;DHT22;52028;50.658;14.004;2022-12-10T03:56:08;3.58;76.73
65421;DHT22;52028;50.658;14.004;2022-12-10T03:58:33;3.51;76.87
65421;DHT22;52028;50.658;14.004;2022-12-10T04:00:58;3.47;76.92
65421;DHT22;52028;50.658;14.004;2022-12-10T04:03:24;3.42;77.14
65421;DHT22;52028;50.658;14.004;2022-12-10T04:05:49;3.41;76.68
65421;DHT22;52028;50.658;14.004;2022-12-10T04:08:14;3.32;76.99
65421;DHT22;52028;50.658;14.004;2022-12-10T04:10:40;3.37;76.88
65421;DHT22;52028;50.658;14.004;2022-12-10T04:13:05;3.32;77.07
65421;DHT22;52028;50.658;14.004;2022-12-10T04:15:49;3.27;77.35
65421;DHT22;52028;50.658;14.004;2022-12-10T04:18:33;3.27;77.43
65421;DHT22;52028;50.658;14.004;2022-12-10T04:20:58;3.31;77.54
65421;DHT22;52028;50.658;14.004;2022-12-10T04:23:42;3.40;77.33
65421;DHT22;52028;50.658;14.004;2022-12-10T04:26:26;3.40;77.07
65421;DHT22;52028;50.658;14.004;2022-12-10T04:29:10;3.30;77.52
65421;DHT22;52028;50.658;14.004;2022-12-10T04:31:36;3.31;77.11
65421;DHT22;52028;50.658;14.004;2022-12-10T04:34:01;3.28;77.55
65421;DHT22;52028;50.658;14.004;2022-12-10T04:36:26;3.23;77.35
65421;DHT22;52028;50.658;14.004;2022-12-10T04:38:52;3.23;77.65
65421;DHT22;52028;50.658;14.004;2022-12-10T04:41:17;3.24;77.72
65421;DHT22;52028;50.658;14.004;2022-12-10T04:43:42;3.21;77.71
65421;DHT22;52028;50.658;14.004;2022-12-10T04:46:11;3.27;77.66
65421;DHT22;52028;50.658;14.004;2022-12-10T04:48:36;3.31;77.66
65421;DHT22;52028;50.658;14.004;2022-12-10T04:51:03;3.17;77.80
65421;DHT22;52028;50.658;14.004;2022-12-10T04:53:28;3.20;78.05
65421;DHT22;52028;50.658;14.004;2022-12-10T04:55:53;3.26;77.56
65421;DHT22;52028;50.658;14.004;2022-12-10T04:58:19;3.20;77.81
65421;DHT22;52028;50.658;14.004;2022-12-10T05:00:44;3.26;77.83
65421;DHT22;52028;50.658;14.004;2022-12-10T05:03:10;3.21;77.83
65421;DHT22;52028;50.658;14.004;2022-12-10T05:05:35;3.20;77.64
65421;DHT22;52028;50.658;14.004;2022-12-10T05:08:01;3.24;77.23
65421;DHT22;52028;50.658;14.004;2022-12-10T05:10:26;3.19;77.29
65421;DHT22;52028;50.658;14.004;2022-12-10T05:12:52;3.19;77.42
65421;DHT22;52028;50.658;14.004;2022-12-10T05:15:17;3.17;77.34
65421;DHT22;52028;50.658;14.004;2022-12-10T05:17:43;3.19;77.61
65421;DHT22;52028;50.658;14.004;2022-12-10T05:20:08;3.03;77.95
65421;DHT22;52028;50.658;14.004;2022-12-10T05:22:34;2.96;78.03
65421;DHT22;52028;50.658;14.004;2022-12-10T05:25:18;3.06;78.09
65421;DHT22;52028;50.658;14.004;2022-12-10T05:27:43;3.21;77.57
65421;DHT22;52028;50.658;14.004;2022-12-10T05:30:09;3.34;77.32
65421;DHT22;52028;50.658;14.004;2022-12-10T05:32:35;3.42;76.92
65421;DHT22;52028;50.658;14.004;2022-12-10T05:35:00;3.41;77.17
65421;DHT22;52028;50.658;14.004;2022-12-10T05:37:26;3.45;76.55
65421;DHT22;52028;50.658;14.004;2022-12-10T05:39:52;3.48;76.44
65421;DHT22;52028;50.658;14.004;2022-12-10T05:42:17;3.28;76.91
65421;DHT22;52028;50.658;14.004;2022-12-10T05:44:42;3.28;76.97
65421;DHT22;52028;50.658;14.004;2022-12-10T05:47:07;3.17;77.59
65421;DHT22;52028;50.658;14.004;2022-12-10T05:49:33;3.31;77.38
65421;DHT22;52028;50.658;14.004;2022-12-10T05:51:58;3.35;76.98
65421;DHT22;52028;50.658;14.004;2022-12-10T05:54:23;3.42;76.92
65421;DHT22;52028;50.658;14.004;2022-12-10T05:56:49;3.44;76.68
65421;DHT22;52028;50.658;14.004;2022-12-10T05:59:14;3.48;76.35
65421;DHT22;52028;50.658;14.004;2022-12-10T06:01:40;3.44;76.44
65421;DHT22;52028;50.658;14.004;2022-12-10T06:04:05;3.38;76.77
65421;DHT22;52028;50.658;14.004;2022-12-10T06:06:33;3.45;76.68
65421;DHT22;52028;50.658;14.004;2022-12-10T06:08:59;3.54;76.45
65421;DHT22;52028;50.658;14.004;2022-12-10T06:11:26;3.58;76.13
65421;DHT22;52028;50.658;14.004;2022-12-10T06:13:52;3.58;75.81
65421;DHT22;52028;50.658;14.004;2022-12-10T06:16:17;3.57;75.59
65421;DHT22;52028;50.658;14.004;2022-12-10T06:18:42;3.44;75.67
65421;DHT22;52028;50.658;14.004;2022-12-10T06:21:11;3.06;76.70
65421;DHT22;52028;50.658;14.004;2022-12-10T06:23:38;3.24;76.72
65421;DHT22;52028;50.658;14.004;2022-12-10T06:26:09;3.37;76.22
65421;DHT22;52028;50.658;14.004;2022-12-10T06:28:35;3.41;76.30
65421;DHT22;52028;50.658;14.004;2022-12-10T06:31:00;3.48;75.86
65421;DHT22;52028;50.658;14.004;2022-12-10T06:33:26;3.51;75.57
65421;DHT22;52028;50.658;14.004;2022-12-10T06:35:52;3.47;76.01
65421;DHT22;52028;50.658;14.004;2022-12-10T06:38:17;3.41;75.94
65421;DHT22;52028;50.658;14.004;2022-12-10T06:40:42;3.41;75.90
65421;DHT22;52028;50.658;14.004;2022-12-10T06:43:08;3.34;76.13
65421;DHT22;52028;50.658;14.004;2022-12-10T06:45:33;3.34;76.12
65421;DHT22;52028;50.658;14.004;2022-12-10T06:47:59;3.40;75.87
65421;DHT22;52028;50.658;14.004;2022-12-10T06:50:24;3.32;75.88
65421;DHT22;52028;50.658;14.004;2022-12-10T06:52:50;3.30;76.36
65421;DHT22;52028;50.658;14.004;2022-12-10T06:55:16;3.34;76.33
65421;DHT22;52028;50.658;14.004;2022-12-10T06:57:41;3.42;75.98
65421;DHT22;52028;50.658;14.004;2022-12-10T07:00:07;3.35;76.11
65421;DHT22;52028;50.658;14.004;2022-12-10T07:02:33;3.40;76.15
65421;DHT22;52028;50.658;14.004;2022-12-10T07:04:59;3.40;75.84
65421;DHT22;52028;50.658;14.004;2022-12-10T07:07:24;3.42;76.21
65421;DHT22;52028;50.658;14.004;2022-12-10T07:09:49;3.44;76.27
65421;DHT22;52028;50.658;14.004;2022-12-10T07:12:15;3.42;76.11
65421;DHT22;52028;50.658;14.004;2022-12-10T07:14:40;3.47;75.97
65421;DHT22;52028;50.658;14.004;2022-12-10T07:17:06;3.35;76.03
65421;DHT22;52028;50.658;14.004;2022-12-10T07:19:31;3.41;76.38
65421;DHT22;52028;50.658;14.004;2022-12-10T07:21:56;3.40;75.92
65421;DHT22;52028;50.658;14.004;2022-12-10T07:24:22;3.38;75.90
65421;DHT22;52028;50.658;14.004;2022-12-10T07:26:47;3.40;75.91
65421;DHT22;52028;50.658;14.004;2022-12-10T07:29:15;3.19;76.40
65421;DHT22;52028;50.658;14.004;2022-12-10T07:31:41;3.03;76.81
65421;DHT22;52028;50.658;14.004;2022-12-10T07:34:07;3.02;76.93
65421;DHT22;52028;50.658;14.004;2022-12-10T07:36:32;3.16;76.81
65421;DHT22;52028;50.658;14.004;2022-12-10T07:38:58;3.14;76.51
65421;DHT22;52028;50.658;14.004;2022-12-10T07:41:24;3.20;76.71
65421;DHT22;52028;50.658;14.004;2022-12-10T07:43:50;3.24;76.45
65421;DHT22;52028;50.658;14.004;2022-12-10T07:46:22;3.30;76.33
65421;DHT22;52028;50.658;14.004;2022-12-10T07:48:48;3.34;76.02
65421;DHT22;52028;50.658;14.004;2022-12-10T07:51:15;3.32;76.23
65421;DHT22;52028;50.658;14.004;2022-12-10T07:53:41;3.31;75.76
65421;DHT22;52028;50.658;14.004;2022-12-10T07:56:07;3.00;76.52
65421;DHT22;52028;50.658;14.004;2022-12-10T07:58:33;2.96;77.30
65421;DHT22;52028;50.658;14.004;2022-12-10T08:00:58;3.10;76.71
65421;DHT22;52028;50.658;14.004;2022-12-10T08:03:23;3.23;76.70
65421;DHT22;52028;50.658;14.004;2022-12-10T08:05:49;3.19;76.95
65421;DHT22;52028;50.658;14.004;2022-12-10T08:08:25;3.27;75.92
65421;DHT22;52028;50.658;14.004;2022-12-10T08:10:50;3.30;75.68
65421;DHT22;52028;50.658;14.004;2022-12-10T08:13:15;3.32;75.46
65421;DHT22;52028;50.658;14.004;2022-12-10T08:15:40;3.27;75.35
65421;DHT22;52028;50.658;14.004;2022-12-10T08:18:06;3.24;75.46
65421;DHT22;52028;50.658;14.004;2022-12-10T08:20:31;3.20;75.43
65421;DHT22;52028;50.658;14.004;2022-12-10T08:22:56;3.28;75.34
65421;DHT22;52028;50.658;14.004;2022-12-10T08:25:22;3.14;75.86
65421;DHT22;52028;50.658;14.004;2022-12-10T08:27:47;3.23;75.99
65421;DHT22;52028;50.658;14.004;2022-12-10T08:30:13;3.27;75.53
65421;DHT22;52028;50.658;14.004;2022-12-10T08:32:38;3.26;75.51
65421;DHT22;52028;50.658;14.004;2022-12-10T08:35:03;3.26;75.54
65421;DHT22;52028;50.658;14.004;2022-12-10T08:37:29;3.28;75.01
65421;DHT22;52028;50.658;14.004;2022-12-10T08:39:54;3.26;75.12
65421;DHT22;52028;50.658;14.004;2022-12-10T08:42:19;3.23;75.36
65421;DHT22;52028;50.658;14.004;2022-12-10T08:44:45;3.34;75.11
65421;DHT22;52028;50.658;14.004;2022-12-10T08:47:10;3.31;74.83
65421;DHT22;52028;50.658;14.004;2022-12-10T08:49:36;3.34;75.01
65421;DHT22;52028;50.658;14.004;2022-12-10T08:52:02;3.32;74.93
65421;DHT22;52028;50.658;14.004;2022-12-10T08:54:27;3.27;75.27
65421;DHT22;52028;50.658;14.004;2022-12-10T08:56:53;3.42;75.08
65421;DHT22;52028;50.658;14.004;2022-12-10T08:59:18;3.64;74.36
65421;DHT22;52028;50.658;14.004;2022-12-10T09:01:43;3.71;73.42
65421;DHT22;52028;50.658;14.004;2022-12-10T09:04:09;3.59;74.08
65421;DHT22;52028;50.658;14.004;2022-12-10T09:06:34;3.75;73.44
65421;DHT22;52028;50.658;14.004;2022-12-10T09:09:00;3.65;73.60
65421;DHT22;52028;50.658;14.004;2022-12-10T09:11:28;3.81;73.28
65421;DHT22;52028;50.658;14.004;2022-12-10T09:13:54;3.96;73.00
65421;DHT22;52028;50.658;14.004;2022-12-10T09:16:20;4.04;72.81
65421;DHT22;52028;50.658;14.004;2022-12-10T09:18:47;4.11;72.97
65421;DHT22;52028;50.658;14.004;2022-12-10T09:21:15;4.17;72.44
65421;DHT22;52028;50.658;14.004;2022-12-10T09:23:41;4.14;71.95
65421;DHT22;52028;50.658;14.004;2022-12-10T09:26:08;4.06;72.27
65421;DHT22;52028;50.658;14.004;2022-12-10T09:28:35;4.21;72.65
65421;DHT22;52028;50.658;14.004;2022-12-10T09:31:01;4.04;72.56
65421;DHT22;52028;50.658;14.004;2022-12-10T09:33:27;4.14;72.27
65421;DHT22;52028;50.658;14.004;2022-12-10T09:35:53;3.93;72.96
65421;DHT22;52028;50.658;14.004;2022-12-10T09:38:18;4.14;72.53
65421;DHT22;52028;50.658;14.004;2022-12-10T09:41:01;3.96;73.06
65421;DHT22;52028;50.658;14.004;2022-12-10T09:46:51;4.00;72.83
65421;DHT22;52028;50.658;14.004;2022-12-10T09:49:26;4.10;71.92
65421;DHT22;52028;50.658;14.004;2022-12-10T09:51:55;4.16;71.57
65421;DHT22;52028;50.658;14.004;2022-12-10T09:54:26;4.17;71.72
65421;DHT22;52028;50.658;14.004;2022-12-10T09:56:54;4.33;71.52
65421;DHT22;52028;50.658;14.004;2022-12-10T09:59:29;4.41;70.94
65421;DHT22;52028;50.658;14.004;2022-12-10T10:04:42;4.36;70.79
65421;DHT22;52028;50.658;14.004;2022-12-10T10:07:11;4.44;70.77
65421;DHT22;52028;50.658;14.004;2022-12-10T10:09:43;4.44;70.50
65421;DHT22;52028;50.658;14.004;2022-12-10T10:12:13;4.25;71.54
65421;DHT22;52028;50.658;14.004;2022-12-10T10:14:39;4.18;71.05
65421;DHT22;52028;50.658;14.004;2022-12-10T10:17:20;4.27;70.80
65421;DHT22;52028;50.658;14.004;2022-12-10T10:19:47;4.24;70.81
65421;DHT22;52028;50.658;14.004;2022-12-10T10:22:14;4.30;70.72
65421;DHT22;52028;50.658;14.004;2022-12-10T10:24:43;4.10;70.99
65421;DHT22;52028;50.658;14.004;2022-12-10T10:27:17;4.16;70.94
65421;DHT22;52028;50.658;14.004;2022-12-10T10:29:46;4.21;70.37
65421;DHT22;52028;50.658;14.004;2022-12-10T10:32:20;4.33;70.30
65421;DHT22;52028;50.658;14.004;2022-12-10T10:34:51;4.21;70.27
65421;DHT22;52028;50.658;14.004;2022-12-10T10:37:29;4.25;70.11
65421;DHT22;52028;50.658;14.004;2022-12-10T10:39:56;4.25;69.17
65421;DHT22;52028;50.658;14.004;2022-12-10T10:42:41;4.20;69.22
65421;DHT22;52028;50.658;14.004;2022-12-10T10:48:10;4.20;68.21
65421;DHT22;52028;50.658;14.004;2022-12-10T10:50:45;4.27;68.88
65421;DHT22;52028;50.658;14.004;2022-12-10T10:53:30;4.44;67.61
65421;DHT22;52028;50.658;14.004;2022-12-10T10:55:58;4.49;67.16
65421;DHT22;52028;50.658;14.004;2022-12-10T10:58:25;4.56;67.13
65421;DHT22;52028;50.658;14.004;2022-12-10T11:03:24;4.65;66.63
65421;DHT22;52028;50.658;14.004;2022-12-10T11:05:50;4.77;67.10
65421;DHT22;52028;50.658;14.004;2022-12-10T11:08:18;4.77;65.58
65421;DHT22;52028;50.658;14.004;2022-12-10T11:10:52;4.86;65.02
65421;DHT22;52028;50.658;14.004;2022-12-10T11:13:25;5.07;64.78
65421;DHT22;52028;50.658;14.004;2022-12-10T11:18:42;4.89;64.66
65421;DHT22;52028;50.658;14.004;2022-12-10T11:23:41;4.92;64.79
65421;DHT22;52028;50.658;14.004;2022-12-10T11:35:19;4.97;63.43
65421;DHT22;52028;50.658;14.004;2022-12-10T11:40:54;5.20;61.76
65421;DHT22;52028;50.658;14.004;2022-12-10T11:43:47;5.13;61.99
65421;DHT22;52028;50.658;14.004;2022-12-10T12:00:24;5.69;61.39
65421;DHT22;52028;50.658;14.004;2022-12-10T12:06:26;7.56;56.38
65421;DHT22;52028;50.658;14.004;2022-12-10T12:12:02;8.66;52.46
65421;DHT22;52028;50.658;14.004;2022-12-10T12:14:38;8.04;53.42
65421;DHT22;52028;50.658;14.004;2022-12-10T12:17:11;6.81;56.42
65421;DHT22;52028;50.658;14.004;2022-12-10T12:19:40;6.41;57.99
65421;DHT22;52028;50.658;14.004;2022-12-10T12:22:24;5.89;59.86
65421;DHT22;52028;50.658;14.004;2022-12-10T12:24:54;5.63;61.31
65421;DHT22;52028;50.658;14.004;2022-12-10T12:27:27;5.35;61.96
65421;DHT22;52028;50.658;14.004;2022-12-10T12:30:13;4.92;63.12
65421;DHT22;52028;50.658;14.004;2022-12-10T12:32:55;4.80;64.11
65421;DHT22;52028;50.658;14.004;2022-12-10T12:38:26;4.64;64.53
65421;DHT22;52028;50.658;14.004;2022-12-10T12:43:39;4.69;64.23
65421;DHT22;52028;50.658;14.004;2022-12-10T12:46:16;4.52;64.85
65421;DHT22;52028;50.658;14.004;2022-12-10T12:48:58;4.49;65.53
65421;DHT22;52028;50.658;14.004;2022-12-10T12:51:32;4.48;65.33
65421;DHT22;52028;50.658;14.004;2022-12-10T12:53:58;4.47;65.58
65421;DHT22;52028;50.658;14.004;2022-12-10T13:02:16;4.24;66.99
65421;DHT22;52028;50.658;14.004;2022-12-10T13:04:43;4.34;67.37
65421;DHT22;52028;50.658;14.004;2022-12-10T13:09:46;4.61;66.53
65421;DHT22;52028;50.658;14.004;2022-12-10T13:22:59;4.20;67.59
65421;DHT22;52028;50.658;14.004;2022-12-10T13:36:21;3.82;68.40
65421;DHT22;52028;50.658;14.004;2022-12-10T13:39:31;4.00;68.01
65421;DHT22;52028;50.658;14.004;2022-12-10T13:45:16;4.02;68.02
65421;DHT22;52028;50.658;14.004;2022-12-10T13:50:49;3.90;68.60
65421;DHT22;52028;50.658;14.004;2022-12-10T13:56:00;3.75;68.68
65421;DHT22;52028;50.658;14.004;2022-12-10T13:58:42;3.75;68.67
65421;DHT22;52028;50.658;14.004;2022-12-10T14:01:33;3.71;68.96
65421;DHT22;52028;50.658;14.004;2022-12-10T14:06:47;3.54;69.81
65421;DHT22;52028;50.658;14.004;2022-12-10T14:09:34;3.54;70.32
65421;DHT22;52028;50.658;14.004;2022-12-10T14:12:10;3.50;70.35
65421;DHT22;52028;50.658;14.004;2022-12-10T14:14:43;3.50;70.74
65421;DHT22;52028;50.658;14.004;2022-12-10T14:17:14;3.48;70.74
65421;DHT22;52028;50.658;14.004;2022-12-10T14:19:43;3.54;70.91
65421;DHT22;52028;50.658;14.004;2022-12-10T14:22:20;3.50;71.08
65421;DHT22;52028;50.658;14.004;2022-12-10T14:24:49;3.48;71.33
65421;DHT22;52028;50.658;14.004;2022-12-10T14:27:17;3.50;71.37
65421;DHT22;52028;50.658;14.004;2022-12-10T14:29:51;3.42;71.82
65421;DHT22;52028;50.658;14.004;2022-12-10T14:32:28;3.55;71.73
65421;DHT22;52028;50.658;14.004;2022-12-10T14:34:56;3.51;72.21
65421;DHT22;52028;50.658;14.004;2022-12-10T14:37:25;3.54;72.09
65421;DHT22;52028;50.658;14.004;2022-12-10T14:39:52;3.59;72.28
65421;DHT22;52028;50.658;14.004;2022-12-10T14:42:18;3.48;72.86
65421;DHT22;52028;50.658;14.004;2022-12-10T14:44:45;3.20;74.22
65421;DHT22;52028;50.658;14.004;2022-12-10T14:47:19;3.26;74.98
65421;DHT22;52028;50.658;14.004;2022-12-10T14:49:48;3.27;75.29
65421;DHT22;52028;50.658;14.004;2022-12-10T14:52:25;3.13;76.12
65421;DHT22;52028;50.658;14.004;2022-12-10T14:54:51;2.95;77.32
65421;DHT22;52028;50.658;14.004;2022-12-10T14:57:18;2.96;76.60
65421;DHT22;52028;50.658;14.004;2022-12-10T14:59:57;3.03;75.79
65421;DHT22;52028;50.658;14.004;2022-12-10T15:02:28;3.00;76.02
65421;DHT22;52028;50.658;14.004;2022-12-10T15:04:54;3.00;75.47
65421;DHT22;52028;50.658;14.004;2022-12-10T15:07:23;3.00;75.38
65421;DHT22;52028;50.658;14.004;2022-12-10T15:09:52;2.99;75.79
65421;DHT22;52028;50.658;14.004;2022-12-10T15:12:37;2.95;75.70
65421;DHT22;52028;50.658;14.004;2022-12-10T15:20:10;2.85;75.80
65421;DHT22;52028;50.658;14.004;2022-12-10T15:22:35;2.78;76.18
65421;DHT22;52028;50.658;14.004;2022-12-10T15:25:14;2.76;76.36
65421;DHT22;52028;50.658;14.004;2022-12-10T15:28:00;2.84;76.97
65421;DHT22;52028;50.658;14.004;2022-12-10T15:30:36;2.89;76.55
65421;DHT22;52028;50.658;14.004;2022-12-10T15:33:03;3.03;76.37
65421;DHT22;52028;50.658;14.004;2022-12-10T15:35:35;3.00;75.73
65421;DHT22;52028;50.658;14.004;2022-12-10T15:38:01;2.76;76.52
65421;DHT22;52028;50.658;14.004;2022-12-10T15:40:30;2.84;77.52
65421;DHT22;52028;50.658;14.004;2022-12-10T15:45:49;2.81;75.56
65421;DHT22;52028;50.658;14.004;2022-12-10T15:48:15;2.95;75.01
65421;DHT22;52028;50.658;14.004;2022-12-10T15:50:41;2.96;75.28
65421;DHT22;52028;50.658;14.004;2022-12-10T15:53:27;3.07;75.95
65421;DHT22;52028;50.658;14.004;2022-12-10T15:55:53;2.95;75.49
65421;DHT22;52028;50.658;14.004;2022-12-10T15:58:18;2.92;75.85
65421;DHT22;52028;50.658;14.004;2022-12-10T16:00:44;3.02;76.46
65421;DHT22;52028;50.658;14.004;2022-12-10T16:03:13;3.03;74.77
65421;DHT22;52028;50.658;14.004;2022-12-10T16:05:40;3.10;73.80
65421;DHT22;52028;50.658;14.004;2022-12-10T16:10:32;3.09;74.22
65421;DHT22;52028;50.658;14.004;2022-12-10T16:13:03;2.99;73.64
65421;DHT22;52028;50.658;14.004;2022-12-10T16:15:32;2.97;74.39
65421;DHT22;52028;50.658;14.004;2022-12-10T16:18:01;2.86;75.09
65421;DHT22;52028;50.658;14.004;2022-12-10T16:20:29;2.76;74.85
65421;DHT22;52028;50.658;14.004;2022-12-10T16:22:56;2.58;75.60
65421;DHT22;52028;50.658;14.004;2022-12-10T16:25:25;2.52;76.01
65421;DHT22;52028;50.658;14.004;2022-12-10T16:27:51;2.48;76.48
65421;DHT22;52028;50.658;14.004;2022-12-10T16:30:22;2.52;76.69
65421;DHT22;52028;50.658;14.004;2022-12-10T16:32:48;2.50;77.45
65421;DHT22;52028;50.658;14.004;2022-12-10T16:35:14;2.52;77.45
65421;DHT22;52028;50.658;14.004;2022-12-10T16:37:45;2.52;77.37
65421;DHT22;52028;50.658;14.004;2022-12-10T16:40:14;2.58;76.62
65421;DHT22;52028;50.658;14.004;2022-12-10T16:42:41;2.59;76.37
65421;DHT22;52028;50.658;14.004;2022-12-10T16:45:13;2.76;76.06
65421;DHT22;52028;50.658;14.004;2022-12-10T16:47:39;2.85;75.83
65421;DHT22;52028;50.658;14.004;2022-12-10T16:50:04;2.91;75.18
65421;DHT22;52028;50.658;14.004;2022-12-10T16:52:30;2.82;74.46
65421;DHT22;52028;50.658;14.004;2022-12-10T16:54:55;2.79;74.92
65421;DHT22;52028;50.658;14.004;2022-12-10T16:57:20;2.75;75.00
65421;DHT22;52028;50.658;14.004;2022-12-10T16:59:46;2.71;74.84
65421;DHT22;52028;50.658;14.004;2022-12-10T17:02:16;2.51;75.32
65421;DHT22;52028;50.658;14.004;2022-12-10T17:04:42;2.48;75.43
65421;DHT22;52028;50.658;14.004;2022-12-10T17:07:09;2.47;75.90
65421;DHT22;52028;50.658;14.004;2022-12-10T17:09:35;2.45;75.97
65421;DHT22;52028;50.658;14.004;2022-12-10T17:12:00;2.48;76.42
65421;DHT22;52028;50.658;14.004;2022-12-10T17:14:32;2.41;76.31
65421;DHT22;52028;50.658;14.004;2022-12-10T17:16:59;2.45;76.52
65421;DHT22;52028;50.658;14.004;2022-12-10T17:19:32;2.62;76.30
65421;DHT22;52028;50.658;14.004;2022-12-10T17:21:58;2.72;76.41
65421;DHT22;52028;50.658;14.004;2022-12-10T17:24:24;2.69;75.76
65421;DHT22;52028;50.658;14.004;2022-12-10T17:26:50;2.59;77.15
65421;DHT22;52028;50.658;14.004;2022-12-10T17:29:35;2.59;76.33
65421;DHT22;52028;50.658;14.004;2022-12-10T17:32:02;2.61;75.54
65421;DHT22;52028;50.658;14.004;2022-12-10T17:34:27;2.58;75.53
65421;DHT22;52028;50.658;14.004;2022-12-10T17:36:53;2.62;75.37
65421;DHT22;52028;50.658;14.004;2022-12-10T17:39:20;2.59;74.99
65421;DHT22;52028;50.658;14.004;2022-12-10T17:41:46;2.65;74.28
65421;DHT22;52028;50.658;14.004;2022-12-10T17:44:12;2.58;73.93
65421;DHT22;52028;50.658;14.004;2022-12-10T17:46:37;2.52;74.20